Time;durP1;ratioP1;P1;durP2;ratioP2;P2;SDS_P1;SDS_P2;PMS_P1;PMS_P2;Temp;Humidity;BMP_temperature;BMP_pressure;BME280_temperature;BME280_humidity;BME280_pressure;Samples;Min_cycle;Max_cycle;Signal;HPM_P1;HPM_P2
2021/01/06 00:00:44;;;;;;;70.87;22.40;;;;;;;;;;5043261;28;20223;-78
2021/01/06 00:03:50;;;;;;;84.77;24.20;;;;;;;;;;5033972;28;20203;-77
2021/01/06 00:06:54;;;;;;;81.70;23.17;;;;;;;;;;5034722;28;20593;-77
2021/01/06 00:09:59;;;;;;;70.10;22.30;;;;;;;;;;5036387;28;20199;-77
2021/01/06 00:13:05;;;;;;;67.93;20.57;;;;;;;;;;5029780;28;20718;-77
2021/01/06 00:16:09;;;;;;;60.10;20.47;;;;;;;;;;5044070;28;20196;-77
2021/01/06 00:19:14;;;;;;;64.93;20.83;;;;;;;;;;5034412;28;20226;-76
2021/01/06 00:22:19;;;;;;;78.13;22.47;;;;;;;;;;5049423;28;20601;-76
2021/01/06 00:25:25;;;;;;;76.10;22.13;;;;;;;;;;5039317;28;20341;-76
2021/01/06 00:28:30;;;;;;;79.03;23.13;;;;;;;;;;5051773;28;20613;-75
2021/01/06 00:31:37;;;;;;;81.20;24.37;;;;;;;;;;5029361;28;20233;-76
2021/01/06 00:34:42;;;;;;;81.80;24.17;;;;;;;;;;5053789;28;20214;-76
2021/01/06 00:37:47;;;;;;;87.67;25.00;;;;;;;;;;5047155;28;20304;-76
2021/01/06 00:40:52;;;;;;;85.37;25.97;;;;;;;;;;5042700;28;20633;-77
2021/01/06 00:43:57;;;;;;;82.13;25.10;;;;;;;;;;5040543;28;20271;-77
2021/01/06 00:47:02;;;;;;;95.60;24.10;;;;;;;;;;5037791;28;20687;-77
2021/01/06 00:50:07;;;;;;;84.77;25.67;;;;;;;;;;5040926;28;20246;-77
2021/01/06 00:53:14;;;;;;;85.30;24.37;;;;;;;;;;5050484;28;20813;-76
2021/01/06 00:56:26;;;;;;;82.40;23.93;;;;;;;;;;5042159;28;20238;-77
2021/01/06 00:59:32;;;;;;;90.63;24.50;;;;;;;;;;5038383;28;20227;-77
2021/01/06 01:02:40;;;;;;;84.13;24.37;;;;;;;;;;5043403;28;20235;-76
2021/01/06 01:05:46;;;;;;;96.77;26.50;;;;;;;;;;5048132;28;20243;-76
2021/01/06 01:08:50;;;;;;;82.33;25.17;;;;;;;;;;5051746;28;20288;-77
2021/01/06 01:11:55;;;;;;;79.27;23.53;;;;;;;;;;5066384;28;20266;-76
2021/01/06 01:15:03;;;;;;;68.33;22.93;;;;;;;;;;5055382;28;20219;-75
2021/01/06 01:18:08;;;;;;;67.30;21.63;;;;;;;;;;5064924;28;20234;-76
2021/01/06 01:21:13;;;;;;;72.90;23.10;;;;;;;;;;5047071;28;20200;-76
2021/01/06 01:24:18;;;;;;;73.37;23.83;;;;;;;;;;5040357;28;20672;-77
2021/01/06 01:27:22;;;;;;;76.00;22.53;;;;;;;;;;5050139;28;20199;-77
2021/01/06 01:30:28;;;;;;;75.20;22.57;;;;;;;;;;5050544;28;20666;-77
2021/01/06 01:33:33;;;;;;;71.73;22.73;;;;;;;;;;5046220;28;20254;-76
2021/01/06 01:36:38;;;;;;;71.73;21.87;;;;;;;;;;5039372;28;20271;-76
2021/01/06 01:39:44;;;;;;;77.33;21.77;;;;;;;;;;5031491;28;20299;-76
2021/01/06 01:42:53;;;;;;;78.63;23.80;;;;;;;;;;5036894;28;20298;-76
2021/01/06 01:46:31;;;;;;;73.27;22.50;;;;;;;;;;5036938;28;20276;-76
2021/01/06 01:49:40;;;;;;;66.97;22.00;;;;;;;;;;5038548;28;20243;-75
2021/01/06 01:52:47;;;;;;;75.57;22.57;;;;;;;;;;5046560;28;20752;-76
2021/01/06 01:55:52;;;;;;;75.57;22.87;;;;;;;;;;5025913;28;20588;-77
2021/01/06 01:58:57;;;;;;;80.60;22.53;;;;;;;;;;5056045;28;20640;-77
2021/01/06 02:02:04;;;;;;;77.70;22.30;;;;;;;;;;5046303;28;20222;-77
2021/01/06 02:05:12;;;;;;;74.50;24.10;;;;;;;;;;5045987;28;20617;-77
2021/01/06 02:08:19;;;;;;;80.57;22.97;;;;;;;;;;5039912;28;20191;-77
2021/01/06 02:11:35;;;;;;;70.87;22.37;;;;;;;;;;5039820;28;20230;-76
2021/01/06 02:14:45;;;;;;;65.90;22.07;;;;;;;;;;5054367;28;20180;-76
2021/01/06 02:17:50;;;;;;;68.23;21.17;;;;;;;;;;5044077;28;20247;-77
2021/01/06 02:21:09;;;;;;;83.40;24.53;;;;;;;;;;5037157;28;20216;-76
2021/01/06 02:24:14;;;;;;;68.13;21.50;;;;;;;;;;5044870;28;20672;-77
2021/01/06 02:27:21;;;;;;;80.77;24.37;;;;;;;;;;5034604;28;20284;-77
2021/01/06 02:30:26;;;;;;;80.37;23.07;;;;;;;;;;5046378;28;20220;-77
2021/01/06 02:33:32;;;;;;;81.77;23.40;;;;;;;;;;5046102;28;20226;-77
2021/01/06 02:36:38;;;;;;;70.30;21.73;;;;;;;;;;5050193;28;20203;-76
2021/01/06 02:39:43;;;;;;;77.87;22.87;;;;;;;;;;5042193;28;20196;-77
2021/01/06 02:42:47;;;;;;;79.70;23.07;;;;;;;;;;5036577;28;20231;-77
2021/01/06 02:45:53;;;;;;;79.73;23.70;;;;;;;;;;5049468;28;20203;-77
2021/01/06 02:48:58;;;;;;;82.90;22.10;;;;;;;;;;5047685;28;21050;-77
2021/01/06 02:52:06;;;;;;;70.33;22.00;;;;;;;;;;5050691;28;20306;-77
2021/01/06 02:55:12;;;;;;;77.40;22.47;;;;;;;;;;5043371;28;20196;-77
2021/01/06 02:58:22;;;;;;;72.83;23.50;;;;;;;;;;5038676;28;20639;-77
2021/01/06 03:01:28;;;;;;;68.67;21.10;;;;;;;;;;5041923;28;20784;-77
2021/01/06 03:04:35;;;;;;;79.50;22.33;;;;;;;;;;5040115;28;20246;-77
2021/01/06 03:07:41;;;;;;;67.00;21.40;;;;;;;;;;5031215;28;20319;-77
2021/01/06 03:10:47;;;;;;;75.60;22.63;;;;;;;;;;5029541;28;20235;-77
2021/01/06 03:13:51;;;;;;;79.30;22.00;;;;;;;;;;5037059;28;20207;-77
2021/01/06 03:16:56;;;;;;;74.03;22.57;;;;;;;;;;5057658;28;20232;-77
2021/01/06 03:20:05;;;;;;;73.53;22.00;;;;;;;;;;5070868;28;20219;-76
2021/01/06 03:23:13;;;;;;;77.13;23.47;;;;;;;;;;5066532;28;20229;-77
2021/01/06 03:26:19;;;;;;;81.90;23.67;;;;;;;;;;5049262;28;20305;-77
2021/01/06 03:29:25;;;;;;;74.83;22.97;;;;;;;;;;5056278;28;20198;-76
2021/01/06 03:32:31;;;;;;;82.40;23.17;;;;;;;;;;5038213;28;20281;-77
2021/01/06 03:35:38;;;;;;;76.93;22.37;;;;;;;;;;5044369;28;20238;-77
2021/01/06 03:38:46;;;;;;;71.93;21.73;;;;;;;;;;5051063;28;20269;-77
2021/01/06 03:41:51;;;;;;;66.00;20.90;;;;;;;;;;5035656;28;20262;-77
2021/01/06 03:44:56;;;;;;;67.40;21.57;;;;;;;;;;5040110;28;20298;-77
2021/01/06 03:48:02;;;;;;;72.97;21.83;;;;;;;;;;5031290;28;20191;-77
2021/01/06 03:51:15;;;;;;;74.20;22.13;;;;;;;;;;5030559;28;20235;-77
2021/01/06 03:54:24;;;;;;;74.70;21.23;;;;;;;;;;5032332;28;20246;-77
2021/01/06 03:57:30;;;;;;;78.60;22.37;;;;;;;;;;5053267;28;20710;-77
2021/01/06 04:00:45;;;;;;;75.70;22.53;;;;;;;;;;5042241;28;20243;-76
2021/01/06 04:03:54;;;;;;;76.17;22.13;;;;;;;;;;5034667;28;20739;-77
2021/01/06 04:07:00;;;;;;;67.70;21.63;;;;;;;;;;5043940;28;20341;-77
2021/01/06 04:10:08;;;;;;;62.47;20.43;;;;;;;;;;5044555;28;20207;-77
2021/01/06 04:13:13;;;;;;;71.20;21.17;;;;;;;;;;5041334;28;20262;-77
2021/01/06 04:16:18;;;;;;;69.67;20.57;;;;;;;;;;5052027;28;20255;-77
2021/01/06 04:19:23;;;;;;;63.60;20.50;;;;;;;;;;5038327;28;20246;-77
2021/01/06 04:22:41;;;;;;;59.53;19.83;;;;;;;;;;5027777;28;20234;-77
2021/01/06 04:25:48;;;;;;;54.13;18.17;;;;;;;;;;5041696;28;20694;-77
2021/01/06 04:28:53;;;;;;;54.33;18.67;;;;;;;;;;5037735;28;20206;-77
2021/01/06 04:31:58;;;;;;;53.10;18.27;;;;;;;;;;5053826;28;20254;-77
2021/01/06 04:35:03;;;;;;;56.83;17.87;;;;;;;;;;5046855;28;20199;-77
2021/01/06 04:38:07;;;;;;;57.13;19.07;;;;;;;;;;5050737;28;20702;-77
2021/01/06 04:41:23;;;;;;;57.80;18.97;;;;;;;;;;5060499;28;20214;-76
2021/01/06 04:44:43;;;;;;;57.20;18.50;;;;;;;;;;5050597;28;20239;-77
2021/01/06 04:48:02;;;;;;;50.67;18.07;;;;;;;;;;5037077;28;20655;-77
2021/01/06 04:51:12;;;;;;;48.90;16.97;;;;;;;;;;5051860;28;20256;-77
2021/01/06 04:54:23;;;;;;;50.70;17.10;;;;;;;;;;5052993;28;20694;-77
2021/01/06 04:57:33;;;;;;;50.67;17.67;;;;;;;;;;5051413;28;20219;-77
2021/01/06 05:00:46;;;;;;;55.50;17.40;;;;;;;;;;5063563;28;20255;-77
2021/01/06 05:03:58;;;;;;;52.10;16.53;;;;;;;;;;5044955;28;20219;-77
2021/01/06 05:07:06;;;;;;;53.50;17.47;;;;;;;;;;5039002;28;20212;-77
2021/01/06 05:10:23;;;;;;;47.40;16.77;;;;;;;;;;5050040;28;20215;-77
2021/01/06 05:13:31;;;;;;;48.57;16.57;;;;;;;;;;5063646;28;20238;-76
2021/01/06 05:16:38;;;;;;;53.27;17.87;;;;;;;;;;5062279;28;20690;-77
2021/01/06 05:19:43;;;;;;;46.80;16.93;;;;;;;;;;5043125;28;20261;-77
2021/01/06 05:22:48;;;;;;;53.07;17.33;;;;;;;;;;5070756;28;20214;-77
2021/01/06 05:29:53;;;;;;;41.87;16.57;;;;;;;;;;5071678;28;20168;-76
2021/01/06 05:33:00;;;;;;;47.70;16.87;;;;;;;;;;5062155;28;20714;-77
2021/01/06 05:36:05;;;;;;;43.83;16.63;;;;;;;;;;5038213;28;20204;-77
2021/01/06 05:39:15;;;;;;;47.30;16.43;;;;;;;;;;5054891;28;20223;-77
2021/01/06 05:42:22;;;;;;;48.77;17.23;;;;;;;;;;5054650;28;20769;-77
2021/01/06 05:45:29;;;;;;;51.00;18.33;;;;;;;;;;5044901;28;20211;-77
2021/01/06 05:48:36;;;;;;;46.93;17.43;;;;;;;;;;5029127;28;20204;-77
2021/01/06 05:51:44;;;;;;;49.23;17.27;;;;;;;;;;5048774;28;20715;-77
2021/01/06 05:54:51;;;;;;;48.57;18.50;;;;;;;;;;5052286;28;20265;-78
2021/01/06 05:57:59;;;;;;;51.50;17.63;;;;;;;;;;5053864;28;20281;-77
2021/01/06 06:01:12;;;;;;;50.70;17.37;;;;;;;;;;5035852;28;20273;-77
2021/01/06 06:04:25;;;;;;;40.43;15.37;;;;;;;;;;5030586;28;20322;-77
2021/01/06 06:07:32;;;;;;;43.87;16.73;;;;;;;;;;5047256;28;20199;-77
2021/01/06 06:10:58;;;;;;;41.37;15.57;;;;;;;;;;5032080;28;20249;-77
2021/01/06 06:14:13;;;;;;;44.57;16.27;;;;;;;;;;5055085;28;20195;-77
2021/01/06 06:17:27;;;;;;;44.93;16.10;;;;;;;;;;5034382;28;20606;-79
2021/01/06 06:20:41;;;;;;;41.10;16.20;;;;;;;;;;5032284;28;20350;-77
2021/01/06 06:23:56;;;;;;;45.67;16.60;;;;;;;;;;5053829;28;20207;-77
2021/01/06 06:27:05;;;;;;;45.80;16.30;;;;;;;;;;5042011;28;20199;-77
2021/01/06 06:30:38;;;;;;;42.03;16.13;;;;;;;;;;5061739;28;20244;-76
2021/01/06 06:33:44;;;;;;;41.37;15.97;;;;;;;;;;5046888;28;20203;-76
2021/01/06 06:36:48;;;;;;;43.30;16.13;;;;;;;;;;5039580;28;20215;-76
2021/01/06 06:40:06;;;;;;;41.90;15.60;;;;;;;;;;5038005;28;20218;-77
2021/01/06 06:43:18;;;;;;;46.90;16.30;;;;;;;;;;5050958;28;20230;-77
2021/01/06 06:46:31;;;;;;;42.73;16.30;;;;;;;;;;5032089;28;20226;-77
2021/01/06 06:49:51;;;;;;;45.03;16.80;;;;;;;;;;5042617;28;20699;-77
2021/01/06 06:53:01;;;;;;;45.73;17.23;;;;;;;;;;5056224;28;20309;-77
2021/01/06 06:56:10;;;;;;;45.60;16.97;;;;;;;;;;5048564;28;20220;-77
2021/01/06 06:59:16;;;;;;;48.00;17.03;;;;;;;;;;5044020;28;20315;-77
2021/01/06 07:02:21;;;;;;;50.07;17.30;;;;;;;;;;5052895;28;20249;-77
2021/01/06 07:05:30;;;;;;;47.63;16.70;;;;;;;;;;5040548;28;20204;-77
2021/01/06 07:08:37;;;;;;;46.90;16.00;;;;;;;;;;5055489;28;20262;-77
2021/01/06 07:11:45;;;;;;;46.30;16.63;;;;;;;;;;5049045;28;20226;-77
2021/01/06 07:14:53;;;;;;;51.13;17.37;;;;;;;;;;5042342;28;20222;-77
2021/01/06 07:17:58;;;;;;;44.77;16.77;;;;;;;;;;5050685;28;20218;-77
2021/01/06 07:21:12;;;;;;;46.97;17.63;;;;;;;;;;5055254;28;20214;-76
2021/01/06 07:24:18;;;;;;;47.47;16.47;;;;;;;;;;5059932;28;20204;-77
2021/01/06 07:27:29;;;;;;;45.43;15.93;;;;;;;;;;5059911;28;20217;-77
2021/01/06 07:30:37;;;;;;;46.93;16.10;;;;;;;;;;5068218;28;20211;-77
2021/01/06 07:33:44;;;;;;;38.73;15.13;;;;;;;;;;5041400;28;20247;-77
2021/01/06 07:36:52;;;;;;;40.37;15.17;;;;;;;;;;5039522;28;20687;-77
2021/01/06 07:39:58;;;;;;;39.73;15.63;;;;;;;;;;5048692;28;20204;-77
2021/01/06 07:43:17;;;;;;;42.43;15.17;;;;;;;;;;5031479;28;20285;-77
2021/01/06 07:46:23;;;;;;;43.73;15.33;;;;;;;;;;5042584;28;20239;-76
2021/01/06 07:49:39;;;;;;;43.77;16.30;;;;;;;;;;5046330;28;20204;-77
2021/01/06 07:52:51;;;;;;;44.70;17.83;;;;;;;;;;5039964;28;20378;-76
2021/01/06 07:55:59;;;;;;;41.07;15.97;;;;;;;;;;5036247;28;20239;-76
2021/01/06 07:59:11;;;;;;;37.17;15.27;;;;;;;;;;5016367;28;20278;-76
2021/01/06 08:02:19;;;;;;;38.90;15.70;;;;;;;;;;5046387;28;20285;-75
2021/01/06 08:05:26;;;;;;;42.37;16.00;;;;;;;;;;5046744;28;20199;-76
2021/01/06 08:08:42;;;;;;;41.40;16.13;;;;;;;;;;5034602;28;20239;-77
2021/01/06 08:11:47;;;;;;;44.37;15.53;;;;;;;;;;5042492;28;20760;-76
2021/01/06 08:15:07;;;;;;;39.57;15.83;;;;;;;;;;5040534;28;20220;-76
2021/01/06 08:18:18;;;;;;;40.10;15.27;;;;;;;;;;5040710;28;20567;-76
2021/01/06 08:21:25;;;;;;;38.80;15.03;;;;;;;;;;5031890;28;20239;-76
2021/01/06 08:24:34;;;;;;;45.90;15.90;;;;;;;;;;5044652;28;20250;-76
2021/01/06 08:27:39;;;;;;;38.17;14.50;;;;;;;;;;5045864;28;20188;-76
2021/01/06 08:30:43;;;;;;;31.87;13.63;;;;;;;;;;5027187;28;20747;-76
2021/01/06 08:33:49;;;;;;;36.23;14.30;;;;;;;;;;5044706;28;20226;-76
2021/01/06 08:36:58;;;;;;;31.30;12.97;;;;;;;;;;5047845;28;20567;-76
2021/01/06 08:40:06;;;;;;;31.47;13.97;;;;;;;;;;5040032;28;20774;-76
2021/01/06 08:43:11;;;;;;;32.70;13.43;;;;;;;;;;5037795;28;20230;-76
2021/01/06 08:46:20;;;;;;;32.60;13.27;;;;;;;;;;5034100;28;20667;-76
2021/01/06 08:49:27;;;;;;;33.90;13.40;;;;;;;;;;5032515;28;20243;-76
2021/01/06 08:52:32;;;;;;;30.50;12.97;;;;;;;;;;5040581;28;20255;-76
2021/01/06 08:55:38;;;;;;;25.60;12.17;;;;;;;;;;5042841;28;20206;-76
2021/01/06 08:58:44;;;;;;;34.80;13.93;;;;;;;;;;5052858;28;20304;-76
2021/01/06 09:01:50;;;;;;;37.93;14.27;;;;;;;;;;5039780;28;20267;-76
2021/01/06 09:04:55;;;;;;;34.97;13.23;;;;;;;;;;5049948;28;20786;-76
2021/01/06 09:08:02;;;;;;;34.53;13.97;;;;;;;;;;5049197;28;20559;-76
2021/01/06 09:11:13;;;;;;;31.20;11.70;;;;;;;;;;5048602;28;20238;-76
2021/01/06 09:14:23;;;;;;;31.03;12.10;;;;;;;;;;5038999;28;20662;-77
2021/01/06 09:17:33;;;;;;;27.37;12.07;;;;;;;;;;5039601;28;20283;-76
2021/01/06 09:20:41;;;;;;;39.13;14.73;;;;;;;;;;5032334;28;20218;-76
2021/01/06 09:23:47;;;;;;;26.80;11.10;;;;;;;;;;5048945;28;20215;-76
2021/01/06 09:26:54;;;;;;;21.40;10.30;;;;;;;;;;5058459;28;20198;-76
2021/01/06 09:29:59;;;;;;;24.00;10.20;;;;;;;;;;5051511;28;20200;-76
2021/01/06 09:33:12;;;;;;;26.70;10.70;;;;;;;;;;5038008;28;20235;-76
2021/01/06 09:36:17;;;;;;;35.80;13.30;;;;;;;;;;5064666;28;20230;-76
2021/01/06 09:39:23;;;;;;;30.40;12.23;;;;;;;;;;5025757;28;20259;-76
2021/01/06 09:42:29;;;;;;;23.73;11.00;;;;;;;;;;5037737;28;20246;-77
2021/01/06 09:45:35;;;;;;;23.63;10.00;;;;;;;;;;5016621;28;20272;-76
2021/01/06 09:48:40;;;;;;;28.00;10.63;;;;;;;;;;5017347;28;20966;-76
2021/01/06 09:51:47;;;;;;;21.30;10.97;;;;;;;;;;5022487;28;20235;-77
2021/01/06 09:54:53;;;;;;;24.70;11.63;;;;;;;;;;5043913;28;20206;-77
2021/01/06 09:58:06;;;;;;;29.30;12.13;;;;;;;;;;5017357;28;20228;-77
2021/01/06 10:01:17;;;;;;;28.73;12.37;;;;;;;;;;5054131;28;20203;-75
2021/01/06 10:04:24;;;;;;;29.00;13.37;;;;;;;;;;5029144;28;20219;-76
2021/01/06 10:07:40;;;;;;;29.97;12.87;;;;;;;;;;5036417;28;20758;-77
2021/01/06 10:10:45;;;;;;;30.67;12.50;;;;;;;;;;5039985;28;20288;-77
2021/01/06 10:13:59;;;;;;;27.77;11.77;;;;;;;;;;5034863;28;20184;-76
2021/01/06 10:17:08;;;;;;;29.33;13.43;;;;;;;;;;5040860;28;20199;-76
2021/01/06 10:20:14;;;;;;;32.37;14.20;;;;;;;;;;5048977;28;20203;-75
2021/01/06 10:23:30;;;;;;;34.37;14.13;;;;;;;;;;5034579;28;20242;-76
2021/01/06 10:26:52;;;;;;;33.00;14.73;;;;;;;;;;5031382;28;20199;-76
2021/01/06 10:29:58;;;;;;;30.27;13.77;;;;;;;;;;5021022;28;20187;-76
2021/01/06 10:33:09;;;;;;;33.90;14.03;;;;;;;;;;5044123;28;20281;-77
2021/01/06 10:36:32;;;;;;;33.93;15.00;;;;;;;;;;5054921;28;20254;-76
2021/01/06 10:39:39;;;;;;;38.27;15.73;;;;;;;;;;5035970;28;20285;-78
2021/01/06 10:42:46;;;;;;;40.47;16.27;;;;;;;;;;5049501;28;20602;-76
2021/01/06 10:45:51;;;;;;;40.27;16.53;;;;;;;;;;5043839;28;20195;-76
2021/01/06 10:48:56;;;;;;;38.17;15.67;;;;;;;;;;5022571;28;20231;-77
2021/01/06 10:52:34;;;;;;;39.97;15.90;;;;;;;;;;5028763;28;20247;-76
2021/01/06 10:55:40;;;;;;;41.30;15.87;;;;;;;;;;4979377;28;20260;-77
2021/01/06 10:58:51;;;;;;;43.27;16.30;;;;;;;;;;4999029;28;20228;-76
2021/01/06 11:02:09;;;;;;;43.20;17.33;;;;;;;;;;5025527;28;20682;-77
2021/01/06 11:05:18;;;;;;;46.37;18.80;;;;;;;;;;5032769;28;20211;-76
2021/01/06 11:08:42;;;;;;;39.00;16.37;;;;;;;;;;5029610;28;20558;-77
2021/01/06 11:11:58;;;;;;;41.10;17.40;;;;;;;;;;5042080;28;20277;-77
2021/01/06 11:15:15;;;;;;;41.60;15.87;;;;;;;;;;5034214;28;20265;-77
2021/01/06 11:18:35;;;;;;;41.53;15.90;;;;;;;;;;5028631;28;20232;-77
2021/01/06 11:22:00;;;;;;;36.17;15.13;;;;;;;;;;5039492;28;20303;-77
2021/01/06 11:25:07;;;;;;;31.40;14.50;;;;;;;;;;5035335;28;20208;-78
2021/01/06 11:28:23;;;;;;;30.70;13.93;;;;;;;;;;5038337;28;20663;-78
2021/01/06 11:31:30;;;;;;;35.53;14.37;;;;;;;;;;5065271;28;20231;-76
2021/01/06 11:34:38;;;;;;;30.03;13.30;;;;;;;;;;5038970;28;20204;-75
2021/01/06 11:37:44;;;;;;;29.60;13.60;;;;;;;;;;5051794;28;20187;-74
2021/01/06 11:40:53;;;;;;;32.13;13.73;;;;;;;;;;5037390;28;20250;-77
2021/01/06 11:44:03;;;;;;;32.07;13.97;;;;;;;;;;5035327;28;20242;-77
2021/01/06 11:47:30;;;;;;;34.17;13.30;;;;;;;;;;5030386;28;20358;-78
2021/01/06 11:50:39;;;;;;;33.13;14.27;;;;;;;;;;5034793;28;20223;-77
2021/01/06 11:53:46;;;;;;;31.97;13.23;;;;;;;;;;5016053;28;20205;-77
2021/01/06 11:56:54;;;;;;;30.67;14.23;;;;;;;;;;5013640;28;20272;-77
2021/01/06 12:00:16;;;;;;;30.40;13.40;;;;;;;;;;5039024;28;20306;-77
2021/01/06 12:03:32;;;;;;;38.00;13.90;;;;;;;;;;5028572;28;20240;-77
2021/01/06 12:06:41;;;;;;;30.80;12.80;;;;;;;;;;5013758;28;20219;-77
2021/01/06 12:09:52;;;;;;;34.97;13.60;;;;;;;;;;5022968;28;20224;-77
2021/01/06 12:13:00;;;;;;;33.57;14.13;;;;;;;;;;5019729;28;20274;-77
2021/01/06 12:16:08;;;;;;;37.43;14.97;;;;;;;;;;5025427;28;20257;-77
2021/01/06 12:19:21;;;;;;;33.77;13.87;;;;;;;;;;5029059;28;20231;-78
2021/01/06 12:22:26;;;;;;;33.17;13.87;;;;;;;;;;5023966;28;20239;-78
2021/01/06 12:25:43;;;;;;;31.97;13.13;;;;;;;;;;5027445;28;20212;-77
2021/01/06 12:28:55;;;;;;;32.33;13.30;;;;;;;;;;5033054;28;20276;-76
2021/01/06 12:32:01;;;;;;;34.50;13.97;;;;;;;;;;5023565;28;20228;-77
2021/01/06 12:35:18;;;;;;;37.60;14.40;;;;;;;;;;5031128;28;20936;-78
2021/01/06 12:38:24;;;;;;;29.83;13.47;;;;;;;;;;5036804;28;20226;-78
2021/01/06 12:41:47;;;;;;;34.13;14.27;;;;;;;;;;5027181;28;20622;-76
2021/01/06 12:45:01;;;;;;;34.17;15.03;;;;;;;;;;5028889;28;20278;-78
2021/01/06 12:48:10;;;;;;;31.97;13.57;;;;;;;;;;5022202;28;20216;-77
2021/01/06 12:51:19;;;;;;;28.17;12.47;;;;;;;;;;5031307;28;20215;-78
2021/01/06 12:54:25;;;;;;;40.90;18.10;;;;;;;;;;5030343;28;20199;-77
2021/01/06 12:57:32;;;;;;;35.37;15.83;;;;;;;;;;5023723;28;20219;-77
2021/01/06 13:00:38;;;;;;;34.07;15.63;;;;;;;;;;5026314;28;20191;-78
2021/01/06 13:03:51;;;;;;;46.77;19.70;;;;;;;;;;5032016;28;20214;-77
2021/01/06 13:06:57;;;;;;;35.97;16.43;;;;;;;;;;5035193;28;20243;-77
2021/01/06 13:10:08;;;;;;;39.47;16.13;;;;;;;;;;5046669;28;20193;-77
2021/01/06 13:17:28;;;;;;;36.30;14.90;;;;;;;;;;5034694;28;20247;-77
2021/01/06 13:20:42;;;;;;;34.73;14.87;;;;;;;;;;5025802;28;20274;-77
2021/01/06 13:23:50;;;;;;;37.40;15.67;;;;;;;;;;5026034;28;20204;-77
2021/01/06 13:27:00;;;;;;;40.63;16.27;;;;;;;;;;5019567;28;20293;-77
2021/01/06 13:30:16;;;;;;;35.60;15.73;;;;;;;;;;5032829;28;20196;-77
2021/01/06 13:33:25;;;;;;;36.90;15.77;;;;;;;;;;5017446;28;20807;-77
2021/01/06 13:36:43;;;;;;;39.47;16.23;;;;;;;;;;5050662;28;20195;-76
2021/01/06 13:39:49;;;;;;;41.30;15.83;;;;;;;;;;5037019;28;20220;-77
2021/01/06 13:43:01;;;;;;;38.80;14.83;;;;;;;;;;5038588;28;20331;-77
2021/01/06 13:46:11;;;;;;;42.37;16.00;;;;;;;;;;5044809;28;20199;-77
2021/01/06 13:49:47;;;;;;;39.47;15.87;;;;;;;;;;5045394;28;20250;-77
2021/01/06 13:52:53;;;;;;;45.30;17.40;;;;;;;;;;4990384;28;20240;-78
2021/01/06 13:56:03;;;;;;;36.20;15.27;;;;;;;;;;5035631;28;20200;-78
2021/01/06 13:59:26;;;;;;;45.60;17.07;;;;;;;;;;5036399;28;20610;-77
2021/01/06 14:02:36;;;;;;;46.77;17.13;;;;;;;;;;5019272;28;20236;-80
2021/01/06 14:05:44;;;;;;;47.77;18.50;;;;;;;;;;5036848;28;20222;-78
2021/01/06 14:09:07;;;;;;;48.53;18.53;;;;;;;;;;5039030;28;20224;-77
2021/01/06 14:12:35;;;;;;;45.13;17.63;;;;;;;;;;5036404;28;20791;-78
2021/01/06 14:16:05;;;;;;;50.10;17.57;;;;;;;;;;5031180;28;20207;-77
2021/01/06 14:19:19;;;;;;;51.83;18.60;;;;;;;;;;5027491;28;20250;-78
2021/01/06 14:22:45;;;;;;;47.50;18.30;;;;;;;;;;5027952;28;20236;-77
2021/01/06 14:25:59;;;;;;;48.57;17.57;;;;;;;;;;5027278;28;20227;-77
2021/01/06 14:29:19;;;;;;;46.30;17.00;;;;;;;;;;5036490;28;20200;-78
2021/01/06 14:32:33;;;;;;;46.73;17.47;;;;;;;;;;5022322;28;20251;-78
2021/01/06 14:35:42;;;;;;;44.27;17.53;;;;;;;;;;5018449;28;20280;-78
2021/01/06 14:38:49;;;;;;;47.03;17.80;;;;;;;;;;5030659;28;20220;-79
2021/01/06 14:41:59;;;;;;;45.50;17.17;;;;;;;;;;5026504;28;20239;-79
2021/01/06 14:45:14;;;;;;;49.77;17.83;;;;;;;;;;5038217;28;20656;-78
2021/01/06 14:48:26;;;;;;;48.60;17.47;;;;;;;;;;5018986;28;20196;-78
2021/01/06 14:51:45;;;;;;;43.43;17.27;;;;;;;;;;5035691;28;20205;-78
2021/01/06 14:54:58;;;;;;;49.20;18.47;;;;;;;;;;5034391;28;20207;-78
2021/01/06 14:58:06;;;;;;;54.13;18.97;;;;;;;;;;5031988;28;20270;-78
2021/01/06 15:01:18;;;;;;;43.43;16.63;;;;;;;;;;5033039;28;20204;-77
2021/01/06 15:04:29;;;;;;;45.53;16.77;;;;;;;;;;5026825;28;20224;-77
2021/01/06 15:07:38;;;;;;;48.90;17.37;;;;;;;;;;5016992;28;20196;-77
2021/01/06 15:10:49;;;;;;;42.20;16.43;;;;;;;;;;5023424;28;20220;-77
2021/01/06 15:14:00;;;;;;;52.70;18.43;;;;;;;;;;5018930;28;20199;-77
2021/01/06 15:17:05;;;;;;;47.40;16.73;;;;;;;;;;5030106;28;20662;-77
2021/01/06 15:20:22;;;;;;;44.77;16.70;;;;;;;;;;5030099;28;20878;-78
2021/01/06 15:23:30;;;;;;;53.63;18.07;;;;;;;;;;5023628;28;20302;-78
2021/01/06 15:26:40;;;;;;;48.80;18.53;;;;;;;;;;5031444;28;20223;-79
2021/01/06 15:29:47;;;;;;;53.20;18.70;;;;;;;;;;5030710;28;20200;-79
2021/01/06 15:32:58;;;;;;;55.97;19.67;;;;;;;;;;5030661;28;20240;-78
2021/01/06 15:36:06;;;;;;;69.33;23.77;;;;;;;;;;5041343;28;20212;-77
2021/01/06 15:39:14;;;;;;;50.20;18.73;;;;;;;;;;5043649;28;20199;-77
2021/01/06 15:42:22;;;;;;;48.27;17.23;;;;;;;;;;5036327;28;20300;-76
2021/01/06 15:45:27;;;;;;;48.13;17.77;;;;;;;;;;5049740;28;20216;-77
2021/01/06 15:48:32;;;;;;;49.60;18.53;;;;;;;;;;5051628;28;20191;-77
2021/01/06 15:51:39;;;;;;;43.30;16.37;;;;;;;;;;5027283;28;20291;-77
2021/01/06 15:54:44;;;;;;;52.23;18.93;;;;;;;;;;5043177;28;20223;-77
2021/01/06 15:57:50;;;;;;;50.93;18.27;;;;;;;;;;5054366;28;20260;-78
2021/01/06 16:00:55;;;;;;;51.67;17.80;;;;;;;;;;5037699;28;20354;-77
2021/01/06 16:04:13;;;;;;;55.07;18.67;;;;;;;;;;5033225;28;20733;-77
2021/01/06 16:07:21;;;;;;;52.27;20.30;;;;;;;;;;5024118;28;20212;-77
2021/01/06 16:10:30;;;;;;;45.80;18.00;;;;;;;;;;5028924;28;20204;-77
2021/01/06 16:13:38;;;;;;;55.23;20.80;;;;;;;;;;5025365;28;20429;-77
2021/01/06 16:16:47;;;;;;;51.70;20.90;;;;;;;;;;5033258;28;20302;-79
2021/01/06 16:19:52;;;;;;;49.07;19.23;;;;;;;;;;5020447;28;20818;-79
2021/01/06 16:22:58;;;;;;;49.37;18.23;;;;;;;;;;5014345;28;20240;-77
2021/01/06 16:26:07;;;;;;;51.03;17.87;;;;;;;;;;5020859;28;20259;-77
2021/01/06 16:29:22;;;;;;;53.93;19.60;;;;;;;;;;5029160;28;20200;-77
2021/01/06 16:32:29;;;;;;;77.63;26.60;;;;;;;;;;5023030;28;20248;-77
2021/01/06 16:35:35;;;;;;;56.60;20.50;;;;;;;;;;5032878;28;20223;-77
2021/01/06 16:38:40;;;;;;;49.67;18.67;;;;;;;;;;5029301;28;20309;-77
2021/01/06 16:41:46;;;;;;;47.50;17.23;;;;;;;;;;5023167;28;20231;-77
2021/01/06 16:44:52;;;;;;;46.07;17.60;;;;;;;;;;5021652;28;20755;-77
2021/01/06 16:48:06;;;;;;;39.70;16.13;;;;;;;;;;5027656;28;20211;-78
2021/01/06 16:51:12;;;;;;;40.67;16.50;;;;;;;;;;5021736;28;20680;-78
2021/01/06 16:54:19;;;;;;;39.67;16.37;;;;;;;;;;5021869;28;20200;-78
2021/01/06 16:57:27;;;;;;;44.23;16.23;;;;;;;;;;5026242;28;20200;-78
2021/01/06 17:00:35;;;;;;;42.30;17.27;;;;;;;;;;5028538;28;20273;-78
2021/01/06 17:03:41;;;;;;;47.07;17.73;;;;;;;;;;5024204;28;20246;-78
2021/01/06 17:06:46;;;;;;;40.27;16.17;;;;;;;;;;5040449;28;20655;-78
2021/01/06 17:09:54;;;;;;;47.83;18.73;;;;;;;;;;5031115;28;20215;-78
2021/01/06 17:13:00;;;;;;;46.80;17.23;;;;;;;;;;5038059;28;20234;-77
2021/01/06 17:16:06;;;;;;;42.40;17.23;;;;;;;;;;5029581;28;20629;-78
2021/01/06 17:19:11;;;;;;;46.70;17.77;;;;;;;;;;5024193;28;20332;-78
2021/01/06 17:22:24;;;;;;;43.47;16.93;;;;;;;;;;5017995;28;20644;-78
2021/01/06 17:25:28;;;;;;;59.73;20.23;;;;;;;;;;5031283;28;20684;-78
2021/01/06 17:29:04;;;;;;;49.27;19.07;;;;;;;;;;5051373;28;20223;-78
2021/01/06 17:32:34;;;;;;;51.33;18.97;;;;;;;;;;5053782;28;20260;-77
2021/01/06 17:35:51;;;;;;;;;;;;;;;;;;;;;
2021/01/06 17:39:22;;;;;;;39.80;16.07;;;;;;;;;;5049736;28;20224;-78
2021/01/06 17:42:27;;;;;;;45.90;18.00;;;;;;;;;;5034437;28;20619;-77
2021/01/06 17:45:36;;;;;;;41.27;16.90;;;;;;;;;;5026756;28;20204;-77
2021/01/06 17:52:28;;;;;;;35.30;14.53;;;;;;;;;;5041772;28;20235;-79
2021/01/06 17:55:34;;;;;;;37.67;15.23;;;;;;;;;;5031425;28;20203;-78
2021/01/06 17:58:39;;;;;;;37.73;15.37;;;;;;;;;;5037585;28;20227;-77
2021/01/06 18:01:44;;;;;;;34.93;14.57;;;;;;;;;;5036694;28;20645;-78
2021/01/06 18:04:48;;;;;;;34.93;14.80;;;;;;;;;;5041917;28;20210;-78
2021/01/06 18:08:04;;;;;;;33.23;13.40;;;;;;;;;;5043062;28;20200;-79
2021/01/06 18:11:10;;;;;;;38.07;14.83;;;;;;;;;;5035718;28;20220;-77
2021/01/06 18:14:15;;;;;;;35.43;15.17;;;;;;;;;;5030109;28;20212;-77
2021/01/06 18:17:25;;;;;;;31.50;13.80;;;;;;;;;;5043700;28;20273;-78
2021/01/06 18:20:32;;;;;;;33.80;13.90;;;;;;;;;;5044303;28;20239;-77
2021/01/06 18:23:37;;;;;;;31.47;13.43;;;;;;;;;;5011221;28;20246;-77
2021/01/06 18:30:07;;;;;;;33.10;14.67;;;;;;;;;;5041428;22;20275;-79
2021/01/06 18:32:48;;;;;;;45.70;17.30;;;;;;;;;;5019662;28;20214;-76
2021/01/06 18:36:12;;;;;;;44.10;17.00;;;;;;;;;;4993760;28;20213;-77
2021/01/06 18:39:26;;;;;;;34.43;15.37;;;;;;;;;;4981062;28;20301;-76